メインページ
METAR-TAF:

METAR-TAF

空港 :

Castlegar, ブリティッシュコロンビア州, カナダ

緯度: 49-18N, 経度: 117-38W, 海抜: 495m

現時点の気象観測

当レポートは6時間3分前の04:00(UTC)に作成
北/北東の風 5kt
気温 15°C
湿度 72%
気圧 1012 hPa
視程: 24.1km
高度9000ftの雲はほとんどない
高度13000ftの雲は散在している
高度19000ftの千切れ雲あり

METAR: CYCG 260400Z 03005KT 15SM FEW090 SCT130 BKN190 15/10 A2988 RMK AC1AC3AC2 LAST STFD OBS/NEXT 261300Z SLP123 DENSITY ALT 2000FT

時間: 03:03 (10:03 UTC)

予報

当レポートは9時間25分前の00:38(UTC)に作成
予報は26日の 01時(UTC)から 26日の 04時(UTC)まで有効
の風 8kt
視程: 10km
高度6000ftの雲は散在している
26日の 01時(UTC)から 26日の 03時(UTC)まで一時的に
視程: 10km
高度8000ftの雲は散在している, 積乱雲.
弱いにわか雨, 近辺で激しい雷雨

TAF: CYCG 260038Z 2601/2604 36008KT P6SM SCT060 TEMPO 2601/2603 P6SM -SHRA VCTS SCT080CB RMK NXT FCST WILL BE ISSUED AT 261445Z

4,000以上の空港の気象観測と天気予報(METAR報とTAF報)

利用可能な観測所は地図上に黄色い丸と赤い丸で示す。

丸の上にカーソルを重ねると観測所名を参照できる。

次にクリックすると気象観測と天気予報を参照できる。

マップの切り替え:黒色「×」印の緑ボタンをクリックして拡大、「-」印の緑ボタンをクリックして縮小、緑色の三角印をクリックして隣りの地図に切り替え


METAR-TAF: